createdAt,value
2019-04-28T00:01:04.102Z,1.30
2019-04-28T00:03:32.675Z,1.50
2019-04-28T00:06:01.213Z,1.47
2019-04-28T00:08:29.593Z,1.60
2019-04-28T00:10:58.022Z,1.50
2019-04-28T00:13:26.606Z,1.72
2019-04-28T00:15:55.162Z,1.60
2019-04-28T00:18:24.008Z,1.80
2019-04-28T00:21:06.331Z,1.42
2019-04-28T00:23:36.301Z,1.50
2019-04-28T00:26:15.366Z,1.37
2019-04-28T00:28:43.762Z,1.50
2019-04-28T00:31:12.266Z,1.42
2019-04-28T00:33:41.012Z,1.75
2019-04-28T00:36:11.573Z,1.50
2019-04-28T00:38:41.489Z,1.90
2019-04-28T00:41:10.980Z,1.57
2019-04-28T00:43:39.459Z,1.47
2019-04-28T00:46:10.828Z,1.20
2019-04-28T00:48:40.931Z,1.62
2019-04-28T00:51:11.496Z,1.12
2019-04-28T00:53:40.850Z,1.65
2019-04-28T00:56:09.459Z,2.08
2019-04-28T00:58:37.957Z,1.55
2019-04-28T01:01:08.062Z,1.30
2019-04-28T01:03:36.548Z,1.92
2019-04-28T01:06:05.031Z,1.60
2019-04-28T01:08:33.412Z,1.52
2019-04-28T01:11:01.920Z,1.50
2019-04-28T01:13:31.957Z,1.60
2019-04-28T01:16:19.415Z,1.35
2019-04-28T01:19:01.287Z,1.70
2019-04-28T01:21:32.378Z,1.70
2019-04-28T01:24:00.790Z,1.72
2019-04-28T01:26:29.994Z,1.80
2019-04-28T01:28:59.648Z,1.98
2019-04-28T01:31:32.679Z,1.37
2019-04-28T01:34:20.425Z,1.37
2019-04-28T01:36:49.557Z,1.70
2019-04-28T01:39:20.045Z,1.70
2019-04-28T01:41:49.606Z,1.67
2019-04-28T01:44:19.829Z,1.57
2019-04-28T01:46:49.602Z,1.85
2019-04-28T01:49:19.584Z,1.80
2019-04-28T01:51:58.095Z,1.47
2019-04-28T01:54:26.539Z,1.30
2019-04-28T01:56:54.946Z,1.47
2019-04-28T01:59:23.360Z,1.67
2019-04-28T02:01:51.750Z,1.55
2019-04-28T02:04:20.103Z,1.57
2019-04-28T02:06:49.749Z,2.05
2019-04-28T02:09:19.500Z,1.62
2019-04-28T02:11:49.759Z,1.52
2019-04-28T02:14:19.585Z,1.20
2019-04-28T02:16:48.065Z,1.60
2019-04-28T02:19:16.435Z,1.52
2019-04-28T02:21:49.582Z,1.80
2019-04-28T02:27:02.517Z,1.82
2019-04-28T02:29:30.882Z,1.60
2019-04-28T02:32:02.245Z,1.60
2019-04-28T02:34:31.126Z,1.50
2019-04-28T02:37:01.648Z,1.80
2019-04-28T02:39:31.252Z,1.75
2019-04-28T02:42:01.457Z,1.92
2019-04-28T02:44:33.445Z,1.55
2019-04-28T02:47:00.778Z,1.45
2019-04-28T02:49:33.688Z,1.80
2019-04-28T02:52:12.792Z,1.70
2019-04-28T02:54:41.164Z,1.57
2019-04-28T02:57:10.771Z,2.17
2019-04-28T02:59:41.051Z,1.40
2019-04-28T03:02:10.638Z,1.45
2019-04-28T03:04:40.820Z,1.40
2019-04-28T03:07:11.482Z,1.70
2019-04-28T03:09:40.407Z,1.60
2019-04-28T03:12:11.136Z,1.70
2019-04-28T03:14:43.425Z,1.60
2019-04-28T03:17:10.949Z,1.30
2019-04-28T03:19:41.487Z,1.20
2019-04-28T03:22:11.420Z,1.60
2019-04-28T03:24:41.278Z,1.90
2019-04-28T03:27:22.822Z,1.65
2019-04-28T03:30:00.812Z,1.70
2019-04-28T03:32:44.605Z,1.40
2019-04-28T03:35:02.930Z,1.50
2019-04-28T03:37:31.581Z,1.47
2019-04-28T03:40:00.573Z,1.60
2019-04-28T03:42:31.375Z,1.90
2019-04-28T03:45:01.085Z,1.60
2019-04-28T03:47:31.254Z,1.25
2019-04-28T03:50:00.209Z,1.60
2019-04-28T03:52:28.617Z,1.40
2019-04-28T03:54:57.122Z,1.22
2019-04-28T03:57:25.502Z,1.30
2019-04-28T03:59:53.896Z,1.30
2019-04-28T04:02:23.593Z,1.32
2019-04-28T04:04:52.985Z,1.40
2019-04-28T04:07:21.926Z,1.30
2019-04-28T04:10:01.422Z,1.25
2019-04-28T04:12:31.499Z,1.05
2019-04-28T04:15:03.941Z,1.22
2019-04-28T04:17:33.658Z,1.20
2019-04-28T04:20:02.105Z,1.27
2019-04-28T04:22:31.471Z,1.20
2019-04-28T04:25:01.242Z,1.25
2019-04-28T04:27:30.936Z,1.12
2019-04-28T04:30:01.759Z,1.40
2019-04-28T04:32:30.486Z,1.27
2019-04-28T04:35:00.666Z,1.20
2019-04-28T04:37:30.808Z,1.30
2019-04-28T04:40:01.387Z,1.32
2019-04-28T04:42:30.700Z,1.15
2019-04-28T04:45:00.518Z,1.10
2019-04-28T04:47:32.485Z,1.40
2019-04-28T04:50:00.261Z,1.00
2019-04-28T04:52:30.401Z,1.30
2019-04-28T04:55:01.036Z,1.50
2019-04-28T04:57:32.419Z,1.35
2019-04-28T04:59:59.990Z,1.25
2019-04-28T05:02:33.156Z,1.02
2019-04-28T05:05:14.196Z,1.10
2019-04-28T05:07:42.558Z,1.40
2019-04-28T05:10:10.953Z,1.20
2019-04-28T05:12:40.407Z,1.30
2019-04-28T05:15:10.405Z,1.10
2019-04-28T05:17:40.219Z,0.95
2019-04-28T05:20:09.850Z,1.20
2019-04-28T05:22:42.493Z,1.10
2019-04-28T05:25:11.978Z,1.20
2019-04-28T05:27:40.444Z,1.20
2019-04-28T05:30:10.433Z,1.20
2019-04-28T05:32:44.664Z,1.17
2019-04-28T05:35:10.212Z,1.30
2019-04-28T05:37:40.413Z,1.40
2019-04-28T05:40:10.502Z,1.10
2019-04-28T05:42:40.704Z,1.72
2019-04-28T05:45:10.389Z,1.30
2019-04-28T05:47:40.646Z,1.40
2019-04-28T05:50:10.713Z,1.75
2019-04-28T05:52:57.167Z,1.50
2019-04-28T05:55:30.570Z,1.35
2019-04-28T05:58:09.834Z,1.30
2019-04-28T06:00:56.125Z,1.37
2019-04-28T06:03:26.127Z,1.50
2019-04-28T06:05:56.900Z,1.15
2019-04-28T06:08:38.054Z,1.30
2019-04-28T06:11:24.322Z,1.12
2019-04-28T06:13:52.685Z,1.45
2019-04-28T06:16:22.127Z,1.50
2019-04-28T06:18:50.686Z,1.90
2019-04-28T06:21:19.082Z,2.08
2019-04-28T06:23:47.451Z,1.37
2019-04-28T06:26:15.852Z,1.35
2019-04-28T06:28:44.225Z,1.20
2019-04-28T06:31:12.618Z,1.65
2019-04-28T06:33:40.979Z,1.40
2019-04-28T06:36:09.375Z,2.90
2019-04-28T06:38:37.775Z,1.50
2019-04-28T06:41:06.258Z,1.30
2019-04-28T06:43:34.586Z,1.32
2019-04-28T06:46:02.986Z,1.57
2019-04-28T06:48:31.379Z,1.60
2019-04-28T06:50:59.759Z,1.35
2019-04-28T06:53:28.164Z,1.27
2019-04-28T06:55:56.545Z,1.30
2019-04-28T06:58:24.932Z,1.27
2019-04-28T07:00:53.315Z,1.00
2019-04-28T07:03:23.265Z,1.32
2019-04-28T07:05:51.892Z,1.20
2019-04-28T07:08:20.283Z,1.30
2019-04-28T07:10:48.727Z,1.42
2019-04-28T07:13:17.123Z,1.67
2019-04-28T07:15:45.508Z,1.42
2019-04-28T07:18:13.899Z,1.70
2019-04-28T07:20:47.068Z,1.52
2019-04-28T07:25:43.176Z,1.10
2019-04-28T07:28:11.579Z,3.55
2019-04-28T07:30:43.301Z,1.50
2019-04-28T07:33:11.769Z,1.35
2019-04-28T07:35:40.146Z,1.47
2019-04-28T07:38:08.556Z,1.32
2019-04-28T07:40:36.923Z,1.20
2019-04-28T07:43:05.315Z,1.55
2019-04-28T07:45:33.683Z,1.50
2019-04-28T07:48:02.091Z,1.50
2019-04-28T07:50:30.467Z,1.95
2019-04-28T07:53:00.529Z,1.50
2019-04-28T07:55:28.880Z,1.62
2019-04-28T07:57:57.279Z,1.80
2019-04-28T08:00:27.291Z,1.62
2019-04-28T08:02:56.756Z,2.17
2019-04-28T08:05:25.169Z,1.90
2019-04-28T08:07:53.563Z,3.35
2019-04-28T08:10:21.951Z,3.45
2019-04-28T08:12:50.347Z,2.05
2019-04-28T08:15:19.339Z,1.98
2019-04-28T08:17:47.801Z,1.67
2019-04-28T08:20:16.244Z,1.77
2019-04-28T08:22:44.638Z,1.95
2019-04-28T08:25:13.182Z,2.17
2019-04-28T08:27:41.569Z,1.62
2019-04-28T08:30:09.955Z,1.75
2019-04-28T08:32:51.906Z,1.90
2019-04-28T08:35:20.268Z,1.90
2019-04-28T08:37:48.663Z,2.10
2019-04-28T08:40:18.670Z,1.62
2019-04-28T08:42:47.067Z,1.40
2019-04-28T08:45:17.136Z,1.87
2019-04-28T08:47:45.666Z,1.40
2019-04-28T08:50:14.059Z,1.85
2019-04-28T08:52:42.436Z,1.40
2019-04-28T08:55:10.866Z,1.90
2019-04-28T08:57:39.238Z,1.60
2019-04-28T09:00:09.732Z,1.62
2019-04-28T09:02:38.112Z,1.82
2019-04-28T09:05:06.500Z,1.82
2019-04-28T09:07:34.883Z,1.72
2019-04-28T09:10:03.848Z,1.55
2019-04-28T09:12:36.759Z,1.40
2019-04-28T09:15:06.849Z,1.47
2019-04-28T09:17:35.231Z,1.17
2019-04-28T09:20:04.972Z,1.60
2019-04-28T09:22:33.350Z,1.42
2019-04-28T09:25:01.745Z,1.50
2019-04-28T09:27:30.116Z,1.77
2019-04-28T09:29:58.512Z,1.47
2019-04-28T09:32:26.901Z,1.98
2019-04-28T09:34:55.299Z,3.00
2019-04-28T09:37:23.674Z,2.40
2019-04-28T09:39:53.724Z,1.92
2019-04-28T09:42:30.864Z,1.77
2019-04-28T09:45:01.696Z,1.82
2019-04-28T09:47:30.100Z,1.60
2019-04-28T09:49:58.505Z,1.72
2019-04-28T09:52:26.878Z,2.10
2019-04-28T09:54:55.281Z,1.80
2019-04-28T09:57:23.656Z,1.70
2019-04-28T09:59:52.047Z,1.85
2019-04-28T10:02:20.418Z,2.05
2019-04-28T10:04:48.823Z,1.60
2019-04-28T10:07:17.220Z,1.77
2019-04-28T10:09:45.695Z,1.95
2019-04-28T10:12:26.309Z,1.45
2019-04-28T10:14:44.117Z,1.50
2019-04-28T10:17:12.500Z,1.47
2019-04-28T10:19:40.895Z,1.72
2019-04-28T10:22:09.289Z,2.00
2019-04-28T10:24:37.695Z,1.85
2019-04-28T10:27:07.541Z,1.52
2019-04-28T10:29:36.012Z,2.05
2019-04-28T10:32:04.334Z,1.98
2019-04-28T10:34:32.771Z,1.77
2019-04-28T10:37:01.191Z,1.30
2019-04-28T10:39:37.080Z,1.57
2019-04-28T10:42:05.470Z,1.50
2019-04-28T10:44:36.623Z,1.62
2019-04-28T10:47:09.316Z,2.00
2019-04-28T10:49:41.684Z,1.50
2019-04-28T10:52:10.072Z,1.33
2019-04-28T10:54:38.494Z,1.40
2019-04-28T10:57:07.039Z,1.40
2019-04-28T10:59:36.699Z,1.45
2019-04-28T11:02:05.065Z,1.87
2019-04-28T11:04:41.079Z,1.70
2019-04-28T11:07:11.157Z,1.98
2019-04-28T11:09:46.969Z,1.90
2019-04-28T11:12:26.715Z,1.62
2019-04-28T11:14:55.100Z,1.90
2019-04-28T11:17:24.856Z,1.67
2019-04-28T11:19:56.030Z,1.82
2019-04-28T11:22:24.418Z,1.40
2019-04-28T11:24:52.816Z,1.92
2019-04-28T11:27:21.592Z,1.75
2019-04-28T11:29:49.956Z,1.50
2019-04-28T11:32:18.363Z,1.30
2019-04-28T11:34:51.055Z,1.50
2019-04-28T11:37:19.528Z,1.55
2019-04-28T11:39:48.072Z,1.60
2019-04-28T11:42:16.677Z,1.52
2019-04-28T11:44:45.091Z,1.82
2019-04-28T11:47:17.583Z,1.30
2019-04-28T11:49:45.957Z,1.27
2019-04-28T11:52:14.504Z,1.60
2019-04-28T11:54:42.814Z,1.42
2019-04-28T11:57:11.153Z,1.52
2019-04-28T11:59:39.564Z,1.10
2019-04-28T12:02:08.183Z,1.20
2019-04-28T12:04:36.498Z,1.10
2019-04-28T12:07:04.904Z,1.20
2019-04-28T12:09:40.661Z,1.20
2019-04-28T12:12:16.255Z,1.60
2019-04-28T12:14:46.340Z,1.40
2019-04-28T12:17:34.989Z,1.40
2019-04-28T12:20:11.577Z,1.60
2019-04-28T12:22:40.167Z,1.20
2019-04-28T12:25:08.564Z,1.32
2019-04-28T12:27:36.991Z,1.30
2019-04-28T12:30:05.891Z,1.50
2019-04-28T12:32:34.311Z,1.00
2019-04-28T12:35:02.681Z,0.90
2019-04-28T12:37:31.106Z,1.20
2019-04-28T12:39:59.476Z,1.15
2019-04-28T12:42:28.036Z,1.10
2019-04-28T12:44:58.084Z,1.15
2019-04-28T12:47:35.795Z,1.00
2019-04-28T12:50:07.402Z,1.10
2019-04-28T12:52:35.795Z,0.90
2019-04-28T12:55:05.403Z,0.65
2019-04-28T12:57:33.802Z,0.90
2019-04-28T13:00:18.743Z,1.00
2019-04-28T13:02:51.595Z,0.80
2019-04-28T13:05:29.430Z,0.75
2019-04-28T13:07:57.966Z,0.80
2019-04-28T13:10:31.514Z,1.15
2019-04-28T13:13:00.101Z,1.27
2019-04-28T13:15:28.477Z,0.90
2019-04-28T13:17:56.876Z,0.90
2019-04-28T13:20:25.251Z,1.00
2019-04-28T13:22:53.652Z,1.10
2019-04-28T13:25:22.055Z,1.10
2019-04-28T13:27:50.453Z,0.93
2019-04-28T13:30:19.218Z,1.10
2019-04-28T13:32:48.083Z,1.30
2019-04-28T13:35:16.448Z,1.20
2019-04-28T13:37:45.479Z,1.07
2019-04-28T13:40:15.458Z,0.78
2019-04-28T13:42:43.874Z,1.10
2019-04-28T13:45:13.873Z,1.00
2019-04-28T13:47:42.371Z,1.20
2019-04-28T13:50:12.624Z,1.15
2019-04-28T13:52:41.007Z,0.90
2019-04-28T13:55:13.958Z,1.00
2019-04-28T13:57:42.453Z,0.82
2019-04-28T14:00:15.640Z,0.88
2019-04-28T14:05:17.707Z,1.12
2019-04-28T14:07:46.120Z,0.72
2019-04-28T14:10:14.531Z,0.90
2019-04-28T14:12:42.855Z,0.80
2019-04-28T14:15:11.204Z,0.72
2019-04-28T14:17:39.619Z,0.90
2019-04-28T14:20:07.996Z,1.05
2019-04-28T14:22:36.352Z,1.17
2019-04-28T14:25:06.292Z,0.90
2019-04-28T14:27:34.653Z,1.12
2019-04-28T14:30:04.124Z,0.80
2019-04-28T14:32:32.490Z,0.80
2019-04-28T14:35:00.945Z,0.90
2019-04-28T14:37:29.270Z,0.70
2019-04-28T14:39:57.703Z,0.80
2019-04-28T14:42:26.122Z,1.10
2019-04-28T14:44:54.563Z,0.95
2019-04-28T14:47:22.967Z,0.75
2019-04-28T14:49:52.311Z,0.88
2019-04-28T14:52:20.687Z,0.90
2019-04-28T14:54:49.105Z,0.50
2019-04-28T14:57:17.535Z,0.70
2019-04-28T14:59:45.925Z,0.90
2019-04-28T15:02:18.919Z,0.82
2019-04-28T15:04:51.781Z,0.80
2019-04-28T15:07:33.900Z,0.70
2019-04-28T15:10:03.858Z,0.80
2019-04-28T15:12:32.232Z,0.82
2019-04-28T15:15:00.631Z,0.90
2019-04-28T15:17:29.009Z,0.80
2019-04-28T15:19:57.410Z,0.93
2019-04-28T15:22:25.814Z,1.40
2019-04-28T15:24:54.203Z,0.95
2019-04-28T15:27:22.647Z,1.00
2019-04-28T15:29:51.036Z,0.90
2019-04-28T15:32:19.409Z,0.98
2019-04-28T15:34:47.804Z,1.40
2019-04-28T15:37:16.182Z,1.85
2019-04-28T15:39:44.595Z,1.02
2019-04-28T15:42:12.963Z,1.00
2019-04-28T15:44:41.358Z,0.90
2019-04-28T15:47:09.812Z,0.88
2019-04-28T15:49:38.218Z,0.82
2019-04-28T15:52:06.595Z,0.80
2019-04-28T15:54:34.996Z,0.80
2019-04-28T15:57:03.376Z,0.90
2019-04-28T15:59:31.772Z,0.90
2019-04-28T16:02:00.169Z,1.00
2019-04-28T16:04:28.537Z,0.70
2019-04-28T16:06:56.927Z,1.30
2019-04-28T16:09:25.303Z,1.00
2019-04-28T16:11:53.701Z,1.00
2019-04-28T16:14:22.119Z,1.10
2019-04-28T16:16:50.504Z,1.10
2019-04-28T16:19:18.882Z,1.40
2019-04-28T16:21:47.328Z,1.17
2019-04-28T16:24:16.080Z,1.40
2019-04-28T16:26:44.471Z,1.20
2019-04-28T16:29:12.863Z,1.27
2019-04-28T16:31:41.259Z,0.93
2019-04-28T16:34:09.615Z,1.25
2019-04-28T16:36:38.013Z,0.98
2019-04-28T16:39:07.324Z,1.20
2019-04-28T16:41:35.784Z,1.10
2019-04-28T16:44:04.456Z,5.75
2019-04-28T16:46:32.848Z,5.67
2019-04-28T16:49:01.800Z,1.37
2019-04-28T16:51:30.240Z,1.12
2019-04-28T16:53:58.604Z,1.20
2019-04-28T16:56:44.883Z,1.22
2019-04-28T16:59:33.076Z,1.17
2019-04-28T17:02:03.186Z,1.70
2019-04-28T17:04:32.300Z,3.60
2019-04-28T17:07:02.815Z,2.45
2019-04-28T17:09:31.431Z,1.90
2019-04-28T17:12:00.220Z,2.40
2019-04-28T17:14:29.518Z,2.65
2019-04-28T17:16:58.166Z,1.60
2019-04-28T17:19:27.140Z,1.45
2019-04-28T17:21:57.261Z,1.50
2019-04-28T17:24:25.779Z,1.37
2019-04-28T17:26:54.199Z,1.10
2019-04-28T17:29:22.563Z,1.20
2019-04-28T17:31:50.926Z,1.32
2019-04-28T17:34:19.315Z,1.00
2019-04-28T17:36:47.705Z,0.93
2019-04-28T17:39:17.746Z,1.50
2019-04-28T17:41:46.118Z,1.30
2019-04-28T17:44:17.046Z,1.20
2019-04-28T17:46:44.647Z,1.60
2019-04-28T17:49:13.068Z,1.50
2019-04-28T17:51:41.439Z,1.35
2019-04-28T17:54:09.904Z,1.37
2019-04-28T17:56:38.275Z,1.30
2019-04-28T17:59:06.691Z,1.20
2019-04-28T18:01:36.710Z,1.00
2019-04-28T18:04:23.021Z,1.25
2019-04-28T18:07:00.692Z,1.00
2019-04-28T18:09:29.174Z,1.20
2019-04-28T18:11:57.656Z,1.25
2019-04-28T18:14:26.280Z,1.10
2019-04-28T18:17:13.000Z,1.20
2019-04-28T18:19:41.545Z,1.42
2019-04-28T18:22:10.040Z,1.37
2019-04-28T18:24:40.019Z,1.40
2019-04-28T18:27:08.668Z,1.47
2019-04-28T18:29:37.143Z,1.22
2019-04-28T18:32:23.712Z,1.80
2019-04-28T18:34:59.374Z,1.40
2019-04-28T18:37:45.997Z,1.40
2019-04-28T18:40:15.944Z,1.20
2019-04-28T18:42:55.264Z,2.00
2019-04-28T18:45:23.684Z,1.60
2019-04-28T18:47:52.027Z,1.47
2019-04-28T18:50:20.534Z,0.98
2019-04-28T18:52:49.066Z,1.32
2019-04-28T18:55:17.570Z,1.25
2019-04-28T18:57:45.975Z,0.90
2019-04-28T19:00:14.426Z,1.20
2019-04-28T19:02:47.244Z,0.90
2019-04-28T19:05:15.770Z,1.00
2019-04-28T19:07:48.998Z,1.00
2019-04-28T19:13:07.912Z,1.07
2019-04-28T19:15:40.820Z,1.27
2019-04-28T19:18:27.153Z,1.25
2019-04-28T19:20:55.537Z,1.40
2019-04-28T19:23:24.132Z,1.10
2019-04-28T19:25:52.542Z,1.50
2019-04-28T19:28:20.943Z,1.80
2019-04-28T19:30:49.319Z,1.20
2019-04-28T19:33:17.714Z,1.37
2019-04-28T19:35:46.096Z,1.40
2019-04-28T19:38:14.499Z,1.42
2019-04-28T19:40:42.905Z,1.42
2019-04-28T19:43:11.385Z,1.30
2019-04-28T19:45:41.430Z,1.50
2019-04-28T19:48:09.848Z,1.72
2019-04-28T19:50:38.271Z,1.30
2019-04-28T19:53:06.660Z,1.32
2019-04-28T19:55:39.615Z,1.67
2019-04-28T19:58:21.646Z,1.70
2019-04-28T20:00:57.477Z,1.65
2019-04-28T20:03:25.897Z,1.50
2019-04-28T20:05:54.321Z,1.62
2019-04-28T20:08:22.714Z,1.40
2019-04-28T20:10:51.158Z,1.70
2019-04-28T20:13:19.533Z,1.32
2019-04-28T20:15:47.941Z,1.60
2019-04-28T20:18:16.316Z,1.65
2019-04-28T20:20:44.720Z,1.62
2019-04-28T20:23:13.100Z,1.50
2019-04-28T20:25:41.670Z,1.30
2019-04-28T20:28:09.996Z,1.55
2019-04-28T20:30:38.631Z,1.67
2019-04-28T20:33:07.862Z,1.50
2019-04-28T20:35:48.885Z,1.60
2019-04-28T20:38:18.864Z,1.62
2019-04-28T20:40:54.728Z,1.50
2019-04-28T20:43:25.007Z,1.37
2019-04-28T20:45:53.396Z,1.70
2019-04-28T20:48:21.764Z,1.62
2019-04-28T20:50:50.400Z,1.90
2019-04-28T20:53:19.436Z,1.40
2019-04-28T20:55:48.419Z,1.60
2019-04-28T20:58:17.384Z,1.45
2019-04-28T21:00:45.824Z,1.82
2019-04-28T21:03:14.722Z,1.98
2019-04-28T21:05:43.616Z,1.80
2019-04-28T21:08:12.033Z,1.92
2019-04-28T21:10:40.495Z,1.50
2019-04-28T21:13:09.204Z,1.70
2019-04-28T21:15:37.817Z,1.60
2019-04-28T21:18:06.472Z,1.60
2019-04-28T21:20:34.900Z,1.80
2019-04-28T21:23:03.334Z,1.70
2019-04-28T21:25:31.886Z,1.60
2019-04-28T21:28:00.905Z,1.50
2019-04-28T21:30:29.310Z,1.42
2019-04-28T21:32:57.682Z,1.90
2019-04-28T21:35:29.251Z,1.57
2019-04-28T21:37:57.884Z,1.80
2019-04-28T21:40:27.806Z,1.90
2019-04-28T21:43:03.482Z,1.85
2019-04-28T21:45:52.156Z,1.98
2019-04-28T21:48:40.483Z,1.85
2019-04-28T21:51:11.716Z,1.75
2019-04-28T21:53:40.324Z,2.27
2019-04-28T21:56:08.725Z,1.87
2019-04-28T21:58:37.103Z,1.92
2019-04-28T22:01:05.696Z,1.65
2019-04-28T22:03:34.072Z,1.62
2019-04-28T22:06:02.476Z,2.50
2019-04-28T22:08:30.841Z,1.80
2019-04-28T22:10:59.273Z,1.90
2019-04-28T22:13:27.668Z,1.75
2019-04-28T22:15:55.977Z,1.67
2019-04-28T22:18:24.771Z,1.95
2019-04-28T22:20:53.123Z,2.20
2019-04-28T22:23:39.262Z,2.02
2019-04-28T22:26:09.330Z,1.67
2019-04-28T22:28:37.691Z,1.87
2019-04-28T22:31:06.108Z,1.85
2019-04-28T22:33:34.588Z,1.95
2019-04-28T22:36:02.957Z,1.90
2019-04-28T22:38:31.409Z,2.10
2019-04-28T22:41:00.179Z,1.90
2019-04-28T22:43:28.577Z,1.72
2019-04-28T22:45:56.945Z,1.70
2019-04-28T22:48:26.307Z,2.12
2019-04-28T22:50:54.682Z,2.00
2019-04-28T22:53:24.711Z,1.95
2019-04-28T22:56:00.307Z,2.10
2019-04-28T22:58:33.028Z,2.27
2019-04-28T23:01:03.030Z,2.17
2019-04-28T23:03:42.216Z,1.85
2019-04-28T23:06:10.722Z,2.85
2019-04-28T23:08:39.087Z,2.40
2019-04-28T23:11:07.966Z,2.40
2019-04-28T23:13:36.395Z,2.50
2019-04-28T23:16:04.774Z,2.90
2019-04-28T23:18:33.236Z,2.50
2019-04-28T23:21:21.256Z,2.40
2019-04-28T23:23:49.712Z,2.30
2019-04-28T23:26:18.210Z,2.10
2019-04-28T23:28:46.670Z,2.05
2019-04-28T23:31:15.042Z,2.20
2019-04-28T23:33:43.431Z,1.98
2019-04-28T23:36:11.804Z,2.30
2019-04-28T23:38:42.494Z,2.22
2019-04-28T23:41:12.579Z,2.08
2019-04-28T23:43:40.980Z,2.80
2019-04-28T23:46:09.344Z,2.30
2019-04-28T23:48:37.727Z,2.12
2019-04-28T23:51:13.927Z,2.77
2019-04-28T23:54:01.771Z,2.35
2019-04-28T23:56:30.136Z,2.15
2019-04-28T23:58:58.532Z,2.10
